Time;durP1;ratioP1;P1;durP2;ratioP2;P2;SDS_P1;SDS_P2;PMS_P1;PMS_P2;Temp;Humidity;BMP_temperature;BMP_pressure;BME280_temperature;BME280_humidity;BME280_pressure;Samples;Min_cycle;Max_cycle;Signal;HPM_P1;HPM_P2
2024/01/18 00:00:44;;;;;;;;;33.60;28.00;;;;;2.51;76.33;98909.91;2035542;28;3591909;-75
2024/01/18 00:01:56;;;;;;;;;34.67;30.33;;;;;2.52;76.18;98915.03;2008390;28;3591911;-75
2024/01/18 00:03:09;;;;;;;;;32.71;26.57;;;;;2.52;76.92;98909.03;2042301;28;2856483;-75
2024/01/18 00:04:20;;;;;;;;;27.00;24.00;;;;;2.50;75.90;98915.97;2015032;28;2836755;-75
2024/01/18 00:05:32;;;;;;;;;28.33;24.00;;;;;2.49;76.74;98916.91;2008117;28;3599177;-75
2024/01/18 00:06:44;;;;;;;;;34.67;28.67;;;;;2.45;76.15;98921.31;2030329;28;3597133;-75
2024/01/18 00:07:56;;;;;;;;;34.33;27.33;;;;;2.45;76.67;98924.75;2021579;28;3610702;-75
2024/01/18 00:09:08;;;;;;;;;26.67;26.67;;;;;2.45;76.27;98929.94;2005792;28;3593325;-75
2024/01/18 00:10:26;;;;;;;;;31.00;25.67;;;;;2.44;75.67;98936.03;2027498;28;2851326;-75
2024/01/18 00:11:40;;;;;;;;;30.43;25.29;;;;;2.42;76.18;98944.75;2045035;28;1840981;-75
2024/01/18 00:12:52;;;;;;;;;26.33;23.33;;;;;2.38;76.09;98946.56;2013239;28;3577322;-75
2024/01/18 00:14:03;;;;;;;;;26.67;25.00;;;;;2.38;76.54;98959.53;2015601;28;3572112;-75
2024/01/18 00:15:15;;;;;;;;;23.33;20.00;;;;;2.36;76.68;98957.00;2028886;28;3573168;-75
2024/01/18 00:16:27;;;;;;;;;25.33;25.33;;;;;2.36;76.46;98957.00;2029351;28;3589830;-75
2024/01/18 00:17:39;;;;;;;;;32.67;28.00;;;;;2.33;76.17;98957.06;2032575;28;3587772;-75
2024/01/18 00:18:51;;;;;;;;;30.33;28.67;;;;;2.34;76.28;98951.00;2032021;28;3590860;-75
2024/01/18 00:20:03;;;;;;;;;25.33;23.67;;;;;2.35;76.40;98947.50;2030529;28;3583573;-75
2024/01/18 00:21:15;;;;;;;;;28.00;25.67;;;;;2.32;76.46;98942.41;2015949;28;2831632;-75
2024/01/18 00:22:27;;;;;;;;;24.67;22.67;;;;;2.35;75.92;98949.25;2014863;28;3580460;-75
2024/01/18 00:23:39;;;;;;;;;22.67;20.00;;;;;2.36;76.32;98945.78;2032660;28;3573204;-75
2024/01/18 00:24:51;;;;;;;;;28.33;26.00;;;;;2.40;76.47;98943.94;2031331;28;3581944;-75
2024/01/18 00:26:02;;;;;;;;;29.00;26.00;;;;;2.41;76.42;98954.28;2028787;28;3591897;-75
2024/01/18 00:27:14;;;;;;;;;27.67;24.33;;;;;2.43;76.57;98946.44;2026228;28;3584642;-75
2024/01/18 00:28:26;;;;;;;;;29.67;24.33;;;;;2.46;76.59;98954.13;2032486;28;3567953;-75
2024/01/18 00:29:38;;;;;;;;;25.40;21.80;;;;;2.47;76.29;98948.91;2037306;28;3577299;-75
2024/01/18 00:30:50;;;;;;;;;31.00;25.33;;;;;2.49;76.34;98942.84;2032466;28;3589796;-75
2024/01/18 00:32:02;;;;;;;;;26.33;24.67;;;;;2.52;76.35;98945.34;2031329;28;3595408;-75
2024/01/18 00:33:14;;;;;;;;;22.33;19.33;;;;;2.51;76.78;98939.31;2029114;28;2818034;-75
2024/01/18 00:34:25;;;;;;;;;27.33;24.00;;;;;2.54;77.03;98946.16;2015072;28;3587736;-75
2024/01/18 00:35:37;;;;;;;;;27.67;24.00;;;;;2.57;76.36;98946.91;2025968;28;3588121;-75
2024/01/18 00:36:49;;;;;;;;;28.00;23.67;;;;;2.57;76.09;98948.63;2032169;28;2834716;-75
2024/01/18 00:38:01;;;;;;;;;25.00;21.67;;;;;2.54;75.92;98943.56;2015830;28;3586686;-75
2024/01/18 00:39:16;;;;;;;;;27.33;25.67;;;;;2.54;76.88;98946.16;2031323;28;3597098;-75
2024/01/18 00:40:27;;;;;;;;;37.00;29.00;;;;;2.53;76.34;98942.69;2015469;28;3609633;-75
2024/01/18 00:41:39;;;;;;;;;31.00;23.00;;;;;2.55;76.25;98937.44;2031603;28;3591890;-75
2024/01/18 00:42:51;;;;;;;;;28.33;22.67;;;;;2.54;76.49;98951.34;2025584;28;3580424;-75
2024/01/18 00:44:03;;;;;;;;;28.67;24.00;;;;;2.52;76.71;98947.94;2031639;28;3572114;-75
2024/01/18 00:45:15;;;;;;;;;27.00;23.33;;;;;2.49;76.11;98945.44;2015248;28;3579447;-75
2024/01/18 00:46:27;;;;;;;;;25.00;22.33;;;;;2.43;75.78;98944.69;2029726;28;3585672;-75
2024/01/18 00:47:39;;;;;;;;;24.00;21.67;;;;;2.41;75.86;98946.50;2030260;28;3562745;-75
2024/01/18 00:48:51;;;;;;;;;22.33;18.67;;;;;2.38;76.07;98951.75;2031795;28;3570032;-75
2024/01/18 00:50:02;;;;;;;;;25.50;19.75;;;;;2.35;75.95;98947.50;2036793;28;1846239;-75
2024/01/18 00:51:14;;;;;;;;;30.33;26.00;;;;;2.34;76.59;98947.56;1993043;28;3583654;-75
2024/01/18 00:52:26;;;;;;;;;24.00;20.67;;;;;2.32;76.44;98944.16;2031735;28;3570052;-75
2024/01/18 00:53:38;;;;;;;;;25.60;23.20;;;;;2.33;76.19;98941.53;2040749;28;1837846;-75
2024/01/18 00:54:52;;;;;;;;;23.67;23.00;;;;;2.34;76.48;98943.22;2043230;28;1832643;-75
2024/01/18 00:56:08;;;;;;;;;24.00;20.33;;;;;2.33;76.81;98941.53;1990909;28;2836818;-75
2024/01/18 00:57:18;;;;;;;;;22.50;18.50;;;;;2.32;76.61;98933.78;2015741;28;2816924;-75
2024/01/18 00:58:31;;;;;;;;;25.17;22.00;;;;;2.34;76.87;98934.59;2023574;28;2833591;-75
2024/01/18 00:59:43;;;;;;;;;19.00;18.00;;;;;2.33;76.28;98940.66;2010235;28;2815872;-75
2024/01/18 01:00:55;;;;;;;;;18.60;17.20;;;;;2.32;76.46;98942.41;2032815;28;2833571;-75
2024/01/18 01:02:09;;;;;;;;;30.50;20.33;;;;;2.28;77.05;98937.34;2025489;28;2849188;-75
2024/01/18 01:03:19;;;;;;;;;18.00;12.50;;;;;2.25;76.42;98935.69;2002244;28;2788816;-75
2024/01/18 01:04:31;;;;;;;;;20.50;16.50;;;;;2.23;76.51;98940.06;2030814;28;2813812;-75
2024/01/18 01:05:42;;;;;;;;;17.00;16.00;;;;;2.19;76.46;98939.31;2005271;28;2837750;-75
2024/01/18 01:06:53;;;;;;;;;23.50;19.00;;;;;2.18;76.47;98931.56;2008802;28;2838788;-75
2024/01/18 01:08:04;;;;;;;;;14.00;14.00;;;;;2.21;76.94;98941.84;2008681;28;2783581;-75
2024/01/18 01:09:15;;;;;;;;;12.00;11.00;;;;;2.22;76.89;98933.19;2031687;28;3514878;-75
2024/01/18 01:10:26;;;;;;;;;17.50;14.00;;;;;2.22;77.15;98939.22;2030363;28;2805488;-75
2024/01/18 01:11:37;;;;;;;;;19.50;19.00;;;;;2.23;76.30;98935.75;2029168;28;2837762;-75
2024/01/18 01:12:48;;;;;;;;;20.00;17.00;;;;;2.20;76.75;98930.63;2002969;28;2826346;-75
2024/01/18 01:13:59;;;;;;;;;24.50;17.50;;;;;2.20;77.04;98927.19;2009501;28;2831508;-75
2024/01/18 01:15:10;;;;;;;;;17.50;15.50;;;;;2.20;76.89;98922.00;1997275;27;2813781;-75
2024/01/18 01:16:21;;;;;;;;;17.00;16.00;;;;;2.19;76.66;98922.91;2030238;28;2810675;-75
2024/01/18 01:17:32;;;;;;;;;17.50;16.00;;;;;2.16;77.22;98922.97;2007792;28;2824184;-75
2024/01/18 01:18:43;;;;;;;;;21.00;18.50;;;;;2.15;76.53;98922.13;2007658;28;2826300;-75
2024/01/18 01:19:54;;;;;;;;;21.50;18.00;;;;;2.12;76.99;98917.03;2009540;28;2830434;-75
2024/01/18 01:21:08;;;;;;;;;18.83;18.17;;;;;2.05;76.89;98916.34;2025685;28;2822133;-75
2024/01/18 01:22:19;;;;;;;;;23.00;17.50;;;;;2.06;76.49;98917.19;1988763;28;2843002;-75
2024/01/18 01:23:31;;;;;;;;;23.33;17.67;;;;;2.06;77.70;98927.56;2002877;28;3594983;-75
2024/01/18 01:24:42;;;;;;;;;19.00;17.00;;;;;2.04;76.23;98925.03;2031299;28;2834075;-75
2024/01/18 01:25:53;;;;;;;;;16.50;14.50;;;;;2.02;77.14;98919.88;2006309;28;2818065;-75
2024/01/18 01:27:05;;;;;;;;;19.00;16.50;;;;;2.04;77.02;98921.56;2003659;28;2825242;-75
2024/01/18 01:28:18;;;;;;;;;21.33;17.17;;;;;2.05;77.39;98918.09;2020856;28;1837813;-75
2024/01/18 01:29:32;;;;;;;;;15.83;15.67;;;;;2.00;77.42;98910.47;2042797;28;1839917;-75
2024/01/18 01:30:43;;;;;;;;;19.00;16.50;;;;;2.00;78.05;98919.06;1992467;28;2820108;-75
2024/01/18 01:31:55;;;;;;;;;24.80;22.20;;;;;1.99;77.01;98925.16;2017610;28;1846116;-75
2024/01/18 01:33:06;;;;;;;;;22.00;18.67;;;;;2.00;77.31;98926.00;2013869;28;2831028;-75
2024/01/18 01:34:20;;;;;;;;;21.14;17.00;;;;;1.99;77.07;98927.75;2043061;28;1836765;-75
2024/01/18 01:35:31;;;;;;;;;21.00;15.50;;;;;1.99;77.33;98932.94;2014087;28;2823274;-75
2024/01/18 01:36:42;;;;;;;;;23.67;20.33;;;;;2.00;77.26;98931.19;2007035;28;2828395;-75
2024/01/18 01:37:53;;;;;;;;;18.50;17.50;;;;;1.99;77.73;98917.38;2012903;28;2810687;-75
2024/01/18 01:39:06;;;;;;;;;23.20;20.00;;;;;1.98;77.28;98926.03;2015227;28;1844055;-75
2024/01/18 01:40:20;;;;;;;;;19.83;18.00;;;;;1.94;77.24;98918.38;2042889;28;1838852;-75
2024/01/18 01:41:31;;;;;;;;;23.00;18.67;;;;;1.93;77.15;98922.72;1992306;28;3575240;-75
2024/01/18 01:42:43;;;;;;;;;24.33;21.00;;;;;1.93;78.04;98927.88;2030608;28;2837890;-75
2024/01/18 01:44:01;;;;;;;;;22.33;19.67;;;;;1.94;77.70;98929.59;2014346;28;3564816;-75
2024/01/18 01:45:14;;;;;;;;;23.67;21.33;;;;;1.94;77.08;98929.59;2044446;28;1833163;-75
2024/01/18 01:46:26;;;;;;;;;23.00;21.00;;;;;1.98;77.99;98933.81;1991809;28;2832580;-75
2024/01/18 01:47:38;;;;;;;;;25.00;19.33;;;;;2.04;77.96;98944.91;1992891;28;3573675;-75
2024/01/18 01:48:50;;;;;;;;;22.33;19.00;;;;;1.99;77.25;98940.69;2016361;28;3570020;-75
2024/01/18 01:50:02;;;;;;;;;21.33;20.33;;;;;1.99;77.74;98943.28;2029932;28;2828379;-75
2024/01/18 01:51:13;;;;;;;;;29.50;23.50;;;;;1.97;77.37;98942.50;2016157;28;2840895;-75
2024/01/18 01:52:26;;;;;;;;;21.00;20.00;;;;;1.93;77.66;98943.44;2007962;28;2820023;-75
2024/01/18 01:53:40;;;;;;;;;25.71;21.29;;;;;1.93;77.31;98951.22;2022243;28;1846153;-75
2024/01/18 01:54:54;;;;;;;;;25.00;21.67;;;;;1.90;77.38;98949.56;2044219;28;1845091;-75
2024/01/18 01:56:05;;;;;;;;;15.00;14.00;;;;;1.90;77.16;98944.38;1994168;28;2796116;-75
2024/01/18 01:57:18;;;;;;;;;22.40;20.40;;;;;1.88;77.56;98950.47;2017969;28;1833628;-75
2024/01/18 01:58:30;;;;;;;;;27.67;20.67;;;;;1.86;77.17;98947.94;2017272;28;3578356;-75
2024/01/18 01:59:43;;;;;;;;;22.40;21.80;;;;;1.84;78.01;98947.13;2044883;28;1842534;-75
2024/01/18 02:00:54;;;;;;;;;23.67;21.33;;;;;1.85;77.16;98945.41;1991444;28;2835699;-75
2024/01/18 02:02:06;;;;;;;;;19.75;17.00;;;;;1.86;77.84;98947.09;2029861;28;1864921;-75
2024/01/18 02:03:18;;;;;;;;;25.33;24.33;;;;;1.83;77.65;98948.00;2013579;28;3581529;-75
2024/01/18 02:04:30;;;;;;;;;20.67;20.67;;;;;1.82;77.68;98945.47;2031093;28;3563780;-75
2024/01/18 02:05:42;;;;;;;;;23.00;19.67;;;;;1.79;77.44;98943.81;2018345;28;3565861;-75
2024/01/18 02:06:55;;;;;;;;;28.00;24.00;;;;;1.76;77.60;98952.50;2022569;28;3574187;-75
2024/01/18 02:08:06;;;;;;;;;22.00;21.33;;;;;1.76;78.68;98951.66;2015738;28;2833727;-75
2024/01/18 02:09:20;;;;;;;;;27.33;22.17;;;;;1.80;78.24;98942.94;2045588;28;1839895;-75
2024/01/18 02:10:31;;;;;;;;;25.33;24.33;;;;;1.79;77.73;98944.66;1988824;28;3587052;-75
2024/01/18 02:11:43;;;;;;;;;24.00;19.67;;;;;1.78;77.44;98945.53;2025105;28;3572107;-75
2024/01/18 02:12:57;;;;;;;;;26.50;21.33;;;;;1.76;78.62;98946.47;2048463;28;2829405;-75
2024/01/18 02:14:09;;;;;;;;;22.33;20.33;;;;;1.74;78.40;98948.25;1998674;28;3569002;-75
2024/01/18 02:15:19;;;;;;;;;16.33;13.00;;;;;1.74;77.97;98943.94;2015059;28;3532548;-75
2024/01/18 02:16:32;;;;;;;;;24.33;20.33;;;;;1.74;77.62;98948.25;2031247;28;2846605;-75
2024/01/18 02:17:45;;;;;;;;;23.50;20.67;;;;;1.72;78.01;98958.66;2044250;28;1834671;-75
2024/01/18 02:18:59;;;;;;;;;19.67;18.33;;;;;1.68;78.29;98959.59;2023470;28;1839905;-75
2024/01/18 02:20:12;;;;;;;;;21.50;20.67;;;;;1.66;78.29;98961.38;2022643;28;1837801;-75
2024/01/18 02:21:25;;;;;;;;;27.00;22.33;;;;;1.66;78.46;98967.44;1991396;28;3580428;-75
2024/01/18 02:22:45;;;;;;;;;20.80;17.40;;;;;1.67;78.18;98968.28;2031393;28;2843040;-75
2024/01/18 02:24:14;;;;;;;;;22.00;20.00;;;;;1.67;77.60;98969.16;1993942;28;2825367;-75
2024/01/18 02:25:27;;;;;;;;;21.00;17.50;;;;;1.66;77.74;98971.75;2012120;28;2851286;-75
2024/01/18 02:26:38;;;;;;;;;20.00;16.00;;;;;1.64;77.54;98973.53;1989742;28;2812763;-75
2024/01/18 02:27:54;;;;;;;;;28.33;22.67;;;;;1.60;77.65;98966.75;2007834;28;3568005;-75
2024/01/18 02:29:08;;;;;;;;;22.57;18.00;;;;;1.61;77.98;98973.59;2043968;28;1848760;-75
2024/01/18 02:30:19;;;;;;;;;27.00;20.00;;;;;1.60;77.66;98979.69;2014825;28;3571094;-75
2024/01/18 02:31:30;;;;;;;;;21.00;20.00;;;;;1.63;78.32;98987.38;2031401;28;2826280;-75
2024/01/18 02:32:41;;;;;;;;;28.00;21.50;;;;;1.64;77.90;98989.06;2011254;28;2839813;-75
2024/01/18 02:33:53;;;;;;;;;26.00;21.67;;;;;1.62;77.75;98983.94;2010643;28;3568997;-75
2024/01/18 02:35:05;;;;;;;;;31.00;24.00;;;;;1.66;78.37;98982.09;2032685;28;2844016;-75
2024/01/18 02:36:19;;;;;;;;;27.40;22.80;;;;;1.68;78.16;98985.50;2007929;28;2836751;-75
2024/01/18 02:37:33;;;;;;;;;27.20;23.80;;;;;1.72;78.21;98979.38;2011347;28;3581454;-75
2024/01/18 02:38:44;;;;;;;;;19.50;15.00;;;;;1.73;78.23;98986.25;1990654;28;2814898;-75
2024/01/18 02:39:56;;;;;;;;;26.60;22.80;;;;;1.72;78.49;98981.97;2001371;28;3578746;-75
2024/01/18 02:41:08;;;;;;;;;23.00;21.00;;;;;1.72;77.53;98981.97;2026074;28;3581498;-75
2024/01/18 02:42:20;;;;;;;;;22.67;20.00;;;;;1.68;78.06;98969.97;2017644;28;3586698;-75
2024/01/18 02:43:33;;;;;;;;;22.00;20.00;;;;;1.67;77.62;98978.66;2016727;28;2825262;-75
2024/01/18 02:44:44;;;;;;;;;25.67;21.00;;;;;1.64;78.01;98979.56;2016049;28;3568973;-75
2024/01/18 02:45:57;;;;;;;;;27.00;20.40;;;;;1.63;77.96;98966.66;2043973;28;1841976;-75
2024/01/18 02:47:09;;;;;;;;;20.00;19.00;;;;;1.62;77.49;98967.53;1990846;28;2818050;-75
2024/01/18 02:48:22;;;;;;;;;22.83;20.17;;;;;1.58;78.35;98964.19;2045378;28;1836775;-75
2024/01/18 02:49:37;;;;;;;;;23.67;21.00;;;;;1.58;77.94;98974.56;1993205;28;2829534;-75
2024/01/18 02:50:48;;;;;;;;;22.67;20.33;;;;;1.60;78.84;98967.59;2016533;28;3559616;-75
2024/01/18 02:52:01;;;;;;;;;20.00;19.00;;;;;1.60;78.14;98971.91;2032449;28;2835694;-75
2024/01/18 02:53:14;;;;;;;;;22.83;21.67;;;;;1.60;78.22;98977.09;2021757;28;1840971;-75
2024/01/18 02:54:26;;;;;;;;;33.67;26.67;;;;;1.60;77.92;98980.53;1993646;28;3585720;-75
2024/01/18 02:55:37;;;;;;;;;23.00;21.33;;;;;1.60;78.16;98985.72;2031224;28;3573188;-75
2024/01/18 02:56:48;;;;;;;;;25.50;23.00;;;;;1.54;77.74;98994.47;2032862;28;2840403;-75
2024/01/18 02:58:00;;;;;;;;;21.75;20.50;;;;;1.54;78.54;98988.44;2017700;28;1839889;-75
2024/01/18 02:59:11;;;;;;;;;22.00;21.00;;;;;1.54;78.33;98998.81;1993829;28;2830430;-75
2024/01/18 03:00:22;;;;;;;;;27.00;21.00;;;;;1.49;77.76;98988.56;1991772;28;2841921;-75
2024/01/18 03:01:33;;;;;;;;;18.00;16.50;;;;;1.45;78.37;98990.38;2010690;28;2843983;-75
2024/01/18 03:02:44;;;;;;;;;22.00;18.25;;;;;1.40;77.77;98983.59;2020197;28;1842038;-75
2024/01/18 03:03:57;;;;;;;;;25.17;21.00;;;;;1.39;77.87;98990.50;2022571;28;1829546;-74
2024/01/18 03:05:08;;;;;;;;;27.00;21.00;;;;;1.39;78.77;98987.06;1994582;28;2830856;-75
2024/01/18 03:06:19;;;;;;;;;24.00;20.00;;;;;1.38;78.10;98986.25;2016518;28;2833638;-75
2024/01/18 03:07:30;;;;;;;;;22.00;18.50;;;;;1.40;77.68;98991.38;2010361;28;2827409;-75
2024/01/18 03:08:42;;;;;;;;;21.00;20.00;;;;;1.38;78.01;98995.72;2007710;28;3575232;-75
2024/01/18 03:09:55;;;;;;;;;24.00;19.83;;;;;1.35;77.82;98999.25;2041965;28;2841928;-75
2024/01/18 03:11:07;;;;;;;;;25.50;20.00;;;;;1.32;77.74;99000.16;2010264;28;2854434;-75
2024/01/18 03:12:17;;;;;;;;;18.00;18.00;;;;;1.31;77.64;99008.81;1993515;28;2830497;-75
2024/01/18 03:13:28;;;;;;;;;23.50;19.00;;;;;1.28;77.96;99008.03;2009349;28;2846064;-75
2024/01/18 03:14:39;;;;;;;;;19.50;16.50;;;;;1.27;78.44;99006.31;2008414;28;2818002;-75
2024/01/18 03:15:50;;;;;;;;;22.50;16.00;;;;;1.28;78.55;99018.41;2009864;28;2821056;-75
2024/01/18 03:17:01;;;;;;;;;19.00;18.50;;;;;1.26;77.89;99015.81;2010085;28;2828399;-75
2024/01/18 03:18:12;;;;;;;;;15.25;15.25;;;;;1.26;78.10;99020.16;2018655;28;1846151;-75
2024/01/18 03:19:23;;;;;;;;;20.00;15.00;;;;;1.26;78.72;99017.56;1994023;28;2804374;-74
2024/01/18 03:20:35;;;;;;;;;16.00;14.50;;;;;1.29;78.58;99028.69;2010232;28;2792964;-75
2024/01/18 03:21:45;;;;;;;;;19.00;17.00;;;;;1.26;78.82;99018.41;2016431;28;2831492;-75
2024/01/18 03:22:56;;;;;;;;;15.00;15.00;;;;;1.23;78.41;99026.25;2009442;28;2790872;-75
2024/01/18 03:24:08;;;;;;;;;19.50;15.00;;;;;1.23;78.23;99021.09;2032359;28;2804425;-75
2024/01/18 03:25:20;;;;;;;;;16.20;15.40;;;;;1.23;78.55;99021.09;2046445;28;1825283;-74
2024/01/18 03:26:31;;;;;;;;;14.50;14.50;;;;;1.24;77.86;99025.34;1991726;28;2786726;-74
2024/01/18 03:27:42;;;;;;;;;15.00;15.00;;;;;1.24;78.35;99033.13;2013352;28;2792971;-75
2024/01/18 03:28:53;;;;;;;;;15.00;14.00;;;;;1.21;78.77;99031.44;1990363;28;2793000;-75
2024/01/18 03:30:07;;;;;;;;;19.50;15.50;;;;;1.22;78.63;99024.53;2011483;27;2809641;-75
2024/01/18 03:31:17;;;;;;;;;18.50;16.00;;;;;1.23;78.27;99036.63;2015155;28;2823194;-75
2024/01/18 03:32:29;;;;;;;;;15.50;12.50;;;;;1.21;78.89;99035.81;2007624;28;2802319;-75
2024/01/18 03:33:39;;;;;;;;;15.33;13.00;;;;;1.17;78.64;99040.19;2018675;28;3511739;-75
2024/01/18 03:34:51;;;;;;;;;21.25;16.25;;;;;1.14;78.63;99040.22;2033822;28;1853460;-75
2024/01/18 03:36:02;;;;;;;;;21.00;19.00;;;;;1.15;79.21;99038.50;2027814;28;2837762;-75
2024/01/18 03:37:14;;;;;;;;;14.25;11.25;;;;;1.11;78.74;99042.91;2014878;28;1826464;-74
2024/01/18 03:38:25;;;;;;;;;18.00;12.75;;;;;1.10;78.80;99039.47;2026128;28;1839941;-75
2024/01/18 03:39:36;;;;;;;;;14.50;14.00;;;;;1.09;79.57;99035.16;2015110;28;2794060;-75
2024/01/18 03:40:47;;;;;;;;;13.00;13.00;;;;;1.13;78.81;99043.72;1999480;28;2791259;-75
2024/01/18 03:41:58;;;;;;;;;12.67;10.67;;;;;1.14;79.12;99047.19;2018031;28;3504372;-75
2024/01/18 03:43:09;;;;;;;;;13.00;12.75;;;;;1.14;79.17;99047.19;2043691;28;1826330;-75
2024/01/18 03:44:20;;;;;;;;;15.50;15.25;;;;;1.16;79.08;99060.94;2007145;28;1854506;-75
2024/01/18 03:45:31;;;;;;;;;14.00;12.33;;;;;1.20;79.52;99047.03;2015248;28;3510691;-74
2024/01/18 03:46:43;;;;;;;;;16.25;13.50;;;;;1.20;78.84;99058.25;2029901;28;1854541;-75
2024/01/18 03:47:53;;;;;;;;;17.00;12.00;;;;;1.20;79.22;99059.97;2014389;28;3523214;-74
2024/01/18 03:49:04;;;;;;;;;13.33;10.33;;;;;1.20;79.13;99059.97;2032504;28;2780564;-74
2024/01/18 03:50:15;;;;;;;;;12.67;12.00;;;;;1.22;79.52;99065.97;2032516;28;3511765;-74
2024/01/18 03:51:26;;;;;;;;;15.00;12.33;;;;;1.21;79.18;99070.28;2046831;28;1840925;-74
2024/01/18 03:52:37;;;;;;;;;11.00;10.00;;;;;1.20;79.04;99072.91;1991225;28;3503358;-74
2024/01/18 03:53:47;;;;;;;;;14.00;10.67;;;;;1.19;78.50;99063.44;2028542;28;3522152;-74
2024/01/18 03:54:58;;;;;;;;;16.00;12.00;;;;;1.18;79.26;99060.00;2026640;28;2804445;-74
2024/01/18 03:56:13;;;;;;;;;13.33;12.00;;;;;1.19;79.48;99064.28;2046387;28;1835697;-74
2024/01/18 03:57:23;;;;;;;;;14.67;10.00;;;;;1.19;79.29;99071.19;1994171;28;3509613;-74
2024/01/18 03:58:36;;;;;;;;;14.67;14.67;;;;;1.16;78.63;99072.09;2046807;28;1841965;-74
2024/01/18 03:59:50;;;;;;;;;10.50;9.33;;;;;1.16;78.86;99076.47;2021052;28;2752359;-74
2024/01/18 04:01:01;;;;;;;;;13.67;10.67;;;;;1.19;78.57;99076.38;1992681;28;3496111;-74
2024/01/18 04:02:12;;;;;;;;;12.33;10.00;;;;;1.18;79.54;99074.69;2015660;28;3507553;-74
2024/01/18 04:03:23;;;;;;;;;12.00;9.00;;;;;1.18;78.91;99074.69;2017106;28;3480547;-74
2024/01/18 04:04:33;;;;;;;;;8.33;8.33;;;;;1.19;79.48;99076.38;2016019;28;2742016;-74
2024/01/18 04:05:45;;;;;;;;;14.75;13.75;;;;;1.18;78.97;99085.03;2043736;28;1838970;-74
2024/01/18 04:06:58;;;;;;;;;10.33;10.00;;;;;1.17;79.40;99083.31;2043827;28;2749692;-74
2024/01/18 04:08:10;;;;;;;;;10.50;10.50;;;;;1.16;79.42;99089.41;2006009;28;1839845;-74
2024/01/18 04:09:20;;;;;;;;;13.00;13.00;;;;;1.14;79.18;99092.00;2014860;28;3513812;-74
2024/01/18 04:10:31;;;;;;;;;13.33;13.33;;;;;1.15;79.00;99095.44;2031576;28;3508616;-74
2024/01/18 04:11:42;;;;;;;;;12.67;8.33;;;;;1.16;79.44;99094.56;2030306;28;2766944;-74
2024/01/18 04:12:53;;;;;;;;;14.33;14.33;;;;;1.15;78.71;99092.84;2029945;28;3516940;-74
2024/01/18 04:14:05;;;;;;;;;13.75;12.50;;;;;1.12;79.54;99099.81;2039247;28;1841992;-74
2024/01/18 04:15:16;;;;;;;;;13.00;11.00;;;;;1.11;79.29;99098.09;2015419;28;3506508;-74
2024/01/18 04:16:27;;;;;;;;;13.67;13.00;;;;;1.11;79.39;99099.84;2023686;28;3513780;-74
2024/01/18 04:17:37;;;;;;;;;15.50;14.00;;;;;1.11;79.60;99103.25;2016823;28;2804453;-74
2024/01/18 04:18:48;;;;;;;;;16.50;12.50;;;;;1.10;79.81;99109.34;2033502;28;2799241;-74
2024/01/18 04:20:00;;;;;;;;;15.67;11.33;;;;;1.10;79.27;99105.91;2047214;27;1846076;-74
2024/01/18 04:21:13;;;;;;;;;14.00;13.33;;;;;1.11;79.00;99116.22;1992437;28;3515886;-74
2024/01/18 04:22:24;;;;;;;;;13.00;12.00;;;;;1.09;79.43;99110.22;2016138;28;2784643;-74
2024/01/18 04:23:35;;;;;;;;;13.33;11.00;;;;;1.09;79.05;99112.81;2047245;28;1826077;-74
2024/01/18 04:24:46;;;;;;;;;16.33;10.67;;;;;1.12;79.17;99119.66;2007659;28;2780571;-74
2024/01/18 04:25:57;;;;;;;;;13.33;13.00;;;;;1.12;78.64;99122.25;2045849;28;1845649;-74
2024/01/18 04:27:08;;;;;;;;;14.00;12.67;;;;;1.14;79.33;99124.81;1993911;28;3508607;-74
2024/01/18 04:28:19;;;;;;;;;13.00;9.33;;;;;1.15;79.79;99131.69;2028448;28;2771213;-74
2024/01/18 04:29:30;;;;;;;;;11.50;11.50;;;;;1.16;79.33;99143.75;2033097;28;1838918;-74
2024/01/18 04:30:42;;;;;;;;;16.00;14.00;;;;;1.16;79.26;99143.75;2014027;28;2798169;-74
2024/01/18 04:31:53;;;;;;;;;12.33;10.67;;;;;1.12;79.06;99141.22;2031369;28;3507538;-74
2024/01/18 04:33:04;;;;;;;;;14.67;13.00;;;;;1.15;79.29;99145.47;2031879;28;3509641;-74
2024/01/18 04:34:15;;;;;;;;;15.67;13.67;;;;;1.14;78.48;99148.94;2014715;28;3526300;-74
2024/01/18 04:35:26;;;;;;;;;15.00;11.00;;;;;1.15;78.56;99152.38;2030756;28;3520014;-74
2024/01/18 04:36:37;;;;;;;;;15.00;11.00;;;;;1.16;78.37;99154.09;2032784;28;3526287;-74
2024/01/18 04:37:47;;;;;;;;;12.00;10.00;;;;;1.15;78.78;99157.56;2032093;28;3511700;-74
2024/01/18 04:38:58;;;;;;;;;14.00;9.00;;;;;1.11;79.08;99157.63;2032920;28;3477344;-74
2024/01/18 04:40:10;;;;;;;;;13.50;12.00;;;;;1.10;78.48;99163.69;2031600;28;2780483;-74
2024/01/18 04:41:21;;;;;;;;;10.33;9.33;;;;;1.08;79.22;99165.47;2033635;28;1842989;-74
2024/01/18 04:42:31;;;;;;;;;13.33;10.33;;;;;1.08;78.94;99173.22;2011573;28;3505460;-74
2024/01/18 04:43:43;;;;;;;;;13.00;12.00;;;;;1.09;78.07;99184.41;2033232;28;3509040;-74
2024/01/18 04:44:53;;;;;;;;;13.33;12.00;;;;;1.07;78.93;99183.59;2016368;28;3497102;-74
2024/01/18 04:46:04;;;;;;;;;13.00;10.00;;;;;1.06;78.41;99185.31;2029774;28;3510648;-74
2024/01/18 04:47:17;;;;;;;;;9.50;9.50;;;;;1.09;78.65;99184.41;2041867;28;2740926;-74
2024/01/18 04:48:27;;;;;;;;;13.67;12.00;;;;;1.06;79.29;99190.50;2015315;28;3509042;-74
2024/01/18 04:49:38;;;;;;;;;10.00;10.00;;;;;1.08;77.98;99193.94;2027753;28;2779492;-74
2024/01/18 04:50:50;;;;;;;;;15.00;10.00;;;;;1.06;78.36;99194.84;2027726;28;3506540;-74
2024/01/18 04:52:00;;;;;;;;;10.00;10.00;;;;;1.06;78.30;99195.66;2018955;28;3488238;-74
2024/01/18 04:53:11;;;;;;;;;12.00;12.00;;;;;1.08;78.70;99198.25;2037223;28;1842424;-74
2024/01/18 04:54:22;;;;;;;;;10.33;10.33;;;;;1.08;78.47;99204.28;2018219;28;2775283;-74
2024/01/18 04:55:33;;;;;;;;;12.67;12.33;;;;;1.07;78.02;99210.31;1992962;28;3511689;-74
2024/01/18 04:56:44;;;;;;;;;10.67;10.00;;;;;1.08;78.24;99211.19;2046987;28;1833666;-74
2024/01/18 04:57:58;;;;;;;;;13.83;9.50;;;;;1.02;77.88;99209.56;2019818;28;2749227;-74
2024/01/18 04:59:09;;;;;;;;;14.33;9.67;;;;;1.03;78.04;99221.63;1992901;28;2779538;-74
2024/01/18 05:00:19;;;;;;;;;17.00;13.67;;;;;0.98;77.93;99218.25;2019282;28;3530454;-74
2024/01/18 05:01:30;;;;;;;;;16.33;12.33;;;;;0.93;78.86;99215.75;2031552;28;3530458;-74
2024/01/18 05:02:41;;;;;;;;;7.67;7.67;;;;;0.92;77.90;99218.34;2029234;28;2748262;-74
2024/01/18 05:03:52;;;;;;;;;13.00;12.50;;;;;0.93;78.26;99227.84;2028319;28;2787744;-74
2024/01/18 05:05:04;;;;;;;;;12.00;12.00;;;;;0.93;78.50;99223.53;2032359;28;3499217;-74
2024/01/18 05:06:14;;;;;;;;;10.67;9.00;;;;;0.91;79.13;99222.69;2014368;28;3471129;-74
2024/01/18 05:07:27;;;;;;;;;13.33;13.00;;;;;0.93;78.53;99243.34;2045597;28;1841983;-74
2024/01/18 05:08:38;;;;;;;;;12.75;12.00;;;;;0.93;78.08;99243.34;2006803;28;1844020;-74
2024/01/18 05:09:49;;;;;;;;;15.00;9.00;;;;;0.88;78.91;99236.53;2015075;28;3492299;-74
2024/01/18 05:11:00;;;;;;;;;13.75;13.00;;;;;0.89;78.48;99240.81;2044686;28;1852391;-74
2024/01/18 05:12:11;;;;;;;;;14.50;12.50;;;;;0.88;78.87;99249.47;2013613;28;2781582;-72
2024/01/18 05:13:22;;;;;;;;;13.50;12.50;;;;;0.86;78.83;99253.81;2031742;28;2785712;-73
2024/01/18 05:14:33;;;;;;;;;18.67;17.33;;;;;0.89;78.60;99258.94;2030223;28;3558561;-73
2024/01/18 05:15:44;;;;;;;;;18.50;14.00;;;;;0.87;78.31;99276.22;2008449;28;2800251;-73
2024/01/18 05:17:03;;;;;;;;;23.50;14.75;;;;;0.83;78.40;99279.75;2040931;28;1831129;-73
2024/01/18 05:18:14;;;;;;;;;14.00;14.00;;;;;0.81;78.32;99273.75;1993185;28;3521051;-73
2024/01/18 05:19:24;;;;;;;;;19.00;18.00;;;;;0.79;78.30;99285.84;2025402;28;2848181;-74
2024/01/18 05:20:36;;;;;;;;;19.00;14.00;;;;;0.80;78.05;99282.38;2009622;28;2795074;-73
2024/01/18 05:21:47;;;;;;;;;17.00;14.33;;;;;0.77;77.77;99285.00;2024052;28;1852342;-73
2024/01/18 05:22:57;;;;;;;;;17.50;14.00;;;;;0.72;77.99;99282.47;1992053;28;2799587;-74
2024/01/18 05:24:09;;;;;;;;;14.75;13.25;;;;;0.73;78.03;99283.34;2046601;28;1850336;-74
2024/01/18 05:25:21;;;;;;;;;19.50;17.00;;;;;0.72;77.58;99291.97;2014586;28;2824251;-74
2024/01/18 05:26:34;;;;;;;;;18.17;14.67;;;;;0.71;77.22;99298.91;2022638;28;1837778;-73